Time;durP1;ratioP1;P1;durP2;ratioP2;P2;SDS_P1;SDS_P2;PMS_P1;PMS_P2;Temp;Humidity;BMP_temperature;BMP_pressure;BME280_temperature;BME280_humidity;BME280_pressure;Samples;Min_cycle;Max_cycle;Signal;HPM_P1;HPM_P2
2022/08/03 00:02:02;;;;;;;4.60;2.95;;;21.20;95.30;;;;;;5042587;28;20224;-78
2022/08/03 00:04:29;;;;;;;5.35;2.95;;;21.20;95.50;;;;;;5024383;28;20224;-78
2022/08/03 00:06:56;;;;;;;3.97;3.53;;;21.10;95.60;;;;;;5046132;28;20306;-78
2022/08/03 00:09:22;;;;;;;4.13;3.03;;;21.10;95.90;;;;;;5042782;28;20227;-77
2022/08/03 00:11:49;;;;;;;5.40;3.10;;;21.00;95.80;;;;;;5040480;28;20319;-77
2022/08/03 00:14:16;;;;;;;4.15;2.90;;;21.00;95.70;;;;;;5045262;28;20217;-77
2022/08/03 00:16:43;;;;;;;3.50;2.83;;;20.90;95.90;;;;;;5047341;28;20285;-77
2022/08/03 00:19:11;;;;;;;3.92;3.20;;;20.90;95.90;;;;;;5028109;28;20227;-77
2022/08/03 00:21:37;;;;;;;4.05;3.20;;;20.80;96.00;;;;;;5045701;28;20802;-77
2022/08/03 00:24:05;;;;;;;3.40;3.00;;;20.80;96.00;;;;;;5044281;28;20656;-77
2022/08/03 00:26:32;;;;;;;3.53;2.80;;;20.70;96.10;;;;;;5027019;28;20720;-77
2022/08/03 00:28:58;;;;;;;3.90;3.00;;;20.60;96.20;;;;;;5042944;28;20236;-79
2022/08/03 00:31:25;;;;;;;3.28;2.97;;;20.60;96.30;;;;;;5043955;28;20230;-77
2022/08/03 00:33:52;;;;;;;5.05;3.20;;;20.50;96.50;;;;;;5041421;28;20244;-77
2022/08/03 00:36:20;;;;;;;3.75;3.28;;;20.50;96.70;;;;;;5046097;28;20772;-78
2022/08/03 00:38:46;;;;;;;5.63;3.22;;;20.40;96.90;;;;;;5046836;28;20213;-78
2022/08/03 00:41:13;;;;;;;5.03;3.30;;;20.40;97.00;;;;;;5041415;28;20782;-78
2022/08/03 00:43:39;;;;;;;3.30;3.00;;;20.30;97.10;;;;;;5041120;28;20220;-78
2022/08/03 00:46:06;;;;;;;4.07;3.20;;;20.30;97.40;;;;;;5048114;28;20231;-78
2022/08/03 00:48:33;;;;;;;4.10;3.22;;;20.30;97.50;;;;;;5040356;28;20220;-79
2022/08/03 00:51:00;;;;;;;3.38;3.00;;;20.30;97.60;;;;;;5022922;28;20232;-78
2022/08/03 00:53:28;;;;;;;3.63;3.05;;;20.30;97.70;;;;;;5043701;28;20231;-78
2022/08/03 00:55:54;;;;;;;4.05;3.45;;;20.20;97.90;;;;;;5044524;28;20224;-78
2022/08/03 00:58:22;;;;;;;5.00;3.65;;;20.20;97.90;;;;;;5043419;28;20238;-78
2022/08/03 01:00:50;;;;;;;4.50;3.55;;;20.20;98.10;;;;;;5023682;28;20306;-78
2022/08/03 01:03:16;;;;;;;4.10;3.70;;;20.20;98.10;;;;;;5045203;28;20704;-77
2022/08/03 01:05:52;;;;;;;4.57;3.45;;;20.20;98.10;;;;;;5047140;28;20225;-78
2022/08/03 01:08:25;;;;;;;4.30;3.45;;;20.10;98.10;;;;;;5041039;28;20216;-78
2022/08/03 01:11:00;;;;;;;4.75;3.30;;;20.10;98.10;;;;;;5024597;28;20235;-78
2022/08/03 01:13:31;;;;;;;5.30;3.13;;;20.00;98.10;;;;;;5046273;28;20441;-78
2022/08/03 01:16:02;;;;;;;3.30;3.00;;;20.00;98.00;;;;;;5027990;28;20228;-78
2022/08/03 01:18:36;;;;;;;3.58;3.28;;;20.00;98.10;;;;;;5042330;28;20980;-78
2022/08/03 01:21:09;;;;;;;3.33;2.85;;;19.90;98.20;;;;;;5037379;28;20721;-78
2022/08/03 01:24:01;;;;;;;4.25;3.22;;;19.90;98.20;;;;;;5047275;28;20718;-78
2022/08/03 01:26:52;;;;;;;4.32;3.67;;;19.80;98.40;;;;;;5054860;28;20307;-78
2022/08/03 01:29:57;;;;;;;5.13;3.85;;;19.80;98.60;;;;;;5036078;28;20235;-78
2022/08/03 01:32:31;;;;;;;4.38;3.80;;;19.70;99.00;;;;;;5018858;28;20234;-78
2022/08/03 01:35:02;;;;;;;4.60;3.15;;;19.60;98.60;;;;;;5040003;28;20263;-77
2022/08/03 01:37:38;;;;;;;5.10;3.60;;;19.60;98.80;;;;;;5045823;28;20228;-77
2022/08/03 01:40:06;;;;;;;4.35;3.50;;;19.50;99.10;;;;;;5038184;28;20228;-77
2022/08/03 01:42:34;;;;;;;4.53;4.03;;;19.50;99.30;;;;;;5045301;28;20232;-77
2022/08/03 01:45:03;;;;;;;3.78;3.40;;;19.40;99.80;;;;;;5028140;28;20220;-77
2022/08/03 01:47:31;;;;;;;3.72;3.22;;;19.30;99.50;;;;;;5043243;28;20226;-77
2022/08/03 01:50:00;;;;;;;4.70;3.55;;;19.30;99.80;;;;;;5040972;28;20232;-77
2022/08/03 01:52:28;;;;;;;6.47;3.60;;;19.20;99.50;;;;;;5045373;28;20228;-77
2022/08/03 01:54:56;;;;;;;5.20;4.10;;;19.10;99.50;;;;;;5046039;28;20590;-78
2022/08/03 01:57:25;;;;;;;4.47;3.22;;;19.10;99.50;;;;;;5046915;28;20704;-78
2022/08/03 01:59:53;;;;;;;4.32;3.40;;;19.10;99.50;;;;;;5041291;28;20223;-78
2022/08/03 02:02:22;;;;;;;4.60;3.70;;;19.00;99.60;;;;;;5041992;28;20234;-77
2022/08/03 02:04:50;;;;;;;3.90;3.50;;;19.00;99.80;;;;;;5046097;28;20794;-78
2022/08/03 02:07:17;;;;;;;4.47;3.63;;;19.00;99.90;;;;;;5044855;28;20231;-79
2022/08/03 02:09:49;;;;;;;4.10;3.63;;;19.00;99.90;;;;;;5042760;28;20273;-77
2022/08/03 02:12:17;;;;;;;4.30;3.70;;;18.90;99.90;;;;;;5043206;28;20223;-78
2022/08/03 02:14:46;;;;;;;4.25;3.85;;;18.80;99.90;;;;;;5038991;28;20312;-79
2022/08/03 02:17:15;;;;;;;3.80;3.50;;;18.80;99.90;;;;;;5029218;28;20243;-78
2022/08/03 02:19:44;;;;;;;4.25;3.85;;;18.80;99.90;;;;;;5040413;28;20752;-78
2022/08/03 02:22:13;;;;;;;4.13;3.67;;;18.70;99.90;;;;;;5042784;28;20222;-77
2022/08/03 02:24:40;;;;;;;5.93;4.10;;;18.70;99.90;;;;;;5041071;28;20242;-77
2022/08/03 02:27:19;;;;;;;6.20;4.00;;;18.60;99.90;;;;;;5043801;28;20228;-78
2022/08/03 02:29:52;;;;;;;5.57;3.92;;;18.60;99.90;;;;;;5026603;28;20227;-77
2022/08/03 02:32:23;;;;;;;5.30;4.25;;;18.60;99.90;;;;;;5042788;28;20216;-78
2022/08/03 02:34:54;;;;;;;4.28;3.78;;;18.50;99.90;;;;;;5024435;28;20624;-78
2022/08/03 02:37:25;;;;;;;4.68;4.00;;;18.50;99.90;;;;;;5026920;28;20339;-78
2022/08/03 02:39:57;;;;;;;4.38;3.85;;;18.40;99.90;;;;;;5038573;28;20813;-78
2022/08/03 02:42:26;;;;;;;5.63;4.18;;;18.40;99.90;;;;;;5052299;28;20231;-78
2022/08/03 02:44:56;;;;;;;4.10;3.70;;;18.40;99.90;;;;;;5043919;28;20870;-77
2022/08/03 02:47:26;;;;;;;5.22;3.88;;;18.40;99.90;;;;;;5038419;28;20235;-78
2022/08/03 02:49:55;;;;;;;4.15;3.75;;;18.30;99.90;;;;;;5041621;28;20243;-78
2022/08/03 02:52:25;;;;;;;4.45;3.80;;;18.30;99.90;;;;;;5026047;28;20251;-77
2022/08/03 02:54:56;;;;;;;4.18;3.78;;;18.30;99.90;;;;;;5050363;28;20219;-77
2022/08/03 02:57:24;;;;;;;4.47;4.07;;;18.20;99.90;;;;;;5043052;28;20219;-78
2022/08/03 02:59:52;;;;;;;4.40;4.00;;;18.20;99.90;;;;;;5037541;28;20219;-78
2022/08/03 03:02:20;;;;;;;4.35;3.95;;;18.20;99.90;;;;;;5042079;28;20257;-77
2022/08/03 03:04:49;;;;;;;4.47;4.07;;;18.20;99.90;;;;;;5048045;28;20222;-78
2022/08/03 03:07:18;;;;;;;4.60;4.20;;;18.20;99.90;;;;;;5044429;28;20708;-78
2022/08/03 03:09:45;;;;;;;4.38;3.63;;;18.20;99.90;;;;;;5023328;28;20223;-77
2022/08/03 03:12:13;;;;;;;5.67;3.73;;;18.10;99.90;;;;;;5046641;28;20215;-78
2022/08/03 03:14:40;;;;;;;4.47;3.92;;;18.10;99.90;;;;;;5045484;28;20755;-78
2022/08/03 03:17:10;;;;;;;5.00;4.20;;;18.10;99.90;;;;;;5042060;28;20227;-77
2022/08/03 03:19:38;;;;;;;5.68;4.10;;;18.10;99.90;;;;;;5044763;28;20349;-77
2022/08/03 03:22:07;;;;;;;4.45;4.05;;;18.10;99.90;;;;;;5046448;28;20701;-77
2022/08/03 03:24:36;;;;;;;4.75;4.25;;;18.00;99.90;;;;;;5047522;28;20219;-77
2022/08/03 03:27:03;;;;;;;4.55;4.15;;;18.00;99.90;;;;;;5024397;28;20240;-77
2022/08/03 03:29:32;;;;;;;4.80;4.30;;;18.00;99.90;;;;;;5026601;28;20303;-77
2022/08/03 03:31:58;;;;;;;4.25;3.85;;;18.00;99.90;;;;;;5044943;28;20223;-77
2022/08/03 03:34:25;;;;;;;4.80;4.30;;;17.90;99.90;;;;;;5046399;28;20220;-77
2022/08/03 03:36:52;;;;;;;5.47;4.32;;;17.90;99.90;;;;;;5028355;28;20224;-77
2022/08/03 03:39:19;;;;;;;7.77;4.40;;;17.90;99.90;;;;;;5025972;28;20633;-77
2022/08/03 03:41:47;;;;;;;5.30;4.82;;;17.90;99.90;;;;;;5044518;28;20307;-77
2022/08/03 03:44:14;;;;;;;4.73;4.33;;;17.90;99.90;;;;;;5044270;28;20220;-78
2022/08/03 03:46:40;;;;;;;7.35;4.72;;;17.80;99.90;;;;;;5045868;28;20262;-77
2022/08/03 03:49:07;;;;;;;5.10;4.60;;;17.80;99.90;;;;;;5048453;28;20223;-77
2022/08/03 03:51:34;;;;;;;5.50;4.60;;;17.80;99.90;;;;;;5044729;28;20746;-77
2022/08/03 03:54:03;;;;;;;5.25;4.38;;;17.80;99.90;;;;;;5039472;28;20228;-77
2022/08/03 03:56:30;;;;;;;4.80;4.37;;;17.80;99.90;;;;;;5045414;28;20232;-78
2022/08/03 03:58:58;;;;;;;4.90;4.50;;;17.80;99.90;;;;;;5044255;28;20227;-77
2022/08/03 04:01:24;;;;;;;6.37;4.53;;;17.90;99.90;;;;;;5032084;28;20246;-78
2022/08/03 04:03:51;;;;;;;5.43;4.93;;;17.90;99.90;;;;;;5034912;28;20216;-77
2022/08/03 04:11:51;;;;;;;5.37;4.97;;;17.90;99.90;;;;;;5025096;28;20231;-77
2022/08/03 04:14:22;;;;;;;5.57;4.60;;;17.90;99.90;;;;;;5049416;28;20238;-77
2022/08/03 04:16:51;;;;;;;5.30;4.80;;;17.90;99.90;;;;;;5042206;28;20742;-78
2022/08/03 04:19:26;;;;;;;4.97;4.57;;;17.90;99.90;;;;;;5041516;28;20238;-78
2022/08/03 04:21:57;;;;;;;4.90;4.33;;;17.90;99.90;;;;;;5042433;28;20711;-78
2022/08/03 04:24:26;;;;;;;4.88;4.38;;;18.00;99.90;;;;;;5040558;28;20777;-80
2022/08/03 04:26:55;;;;;;;5.20;4.45;;;18.00;99.90;;;;;;5048224;28;20234;-78
2022/08/03 04:29:25;;;;;;;4.47;4.07;;;18.00;99.90;;;;;;5042694;28;20228;-79
2022/08/03 04:31:55;;;;;;;5.68;4.68;;;18.00;99.90;;;;;;5047121;28;20224;-80
2022/08/03 04:34:22;;;;;;;5.53;4.78;;;18.10;99.90;;;;;;5049703;28;20260;-78
2022/08/03 04:36:53;;;;;;;5.88;4.40;;;18.10;99.90;;;;;;5023734;28;20232;-77
2022/08/03 04:39:25;;;;;;;5.35;4.68;;;18.10;99.90;;;;;;5041894;28;20597;-78
2022/08/03 04:41:54;;;;;;;5.72;4.82;;;18.20;99.90;;;;;;5035670;28;20260;-78
2022/08/03 04:44:24;;;;;;;5.00;4.43;;;18.20;99.90;;;;;;5041337;28;20308;-78
2022/08/03 04:46:52;;;;;;;5.40;4.90;;;18.20;99.90;;;;;;5044075;28;20220;-77
2022/08/03 04:49:20;;;;;;;6.90;4.93;;;18.30;99.90;;;;;;5046153;28;20232;-78
2022/08/03 04:51:49;;;;;;;5.70;4.60;;;18.30;99.90;;;;;;5030949;28;20243;-78
2022/08/03 04:54:16;;;;;;;6.35;5.10;;;18.30;99.90;;;;;;5041629;28;21917;-79
2022/08/03 04:56:44;;;;;;;5.93;4.68;;;18.40;99.90;;;;;;5047168;28;20728;-78
2022/08/03 04:59:11;;;;;;;5.88;4.63;;;18.30;99.90;;;;;;5044074;28;20227;-79
2022/08/03 05:01:40;;;;;;;6.05;4.70;;;18.40;99.90;;;;;;5025651;28;20258;-78
2022/08/03 05:04:06;;;;;;;5.57;4.38;;;18.40;99.90;;;;;;5040879;28;20771;-78
2022/08/03 05:06:33;;;;;;;5.72;4.72;;;18.40;99.90;;;;;;5046579;28;20934;-78
2022/08/03 05:09:00;;;;;;;4.68;4.25;;;18.50;99.90;;;;;;5041793;28;20231;-79
2022/08/03 05:11:26;;;;;;;4.85;4.43;;;18.50;99.90;;;;;;5038643;28;20228;-78
2022/08/03 05:13:53;;;;;;;6.95;4.88;;;18.50;99.90;;;;;;5046231;28;20220;-78
2022/08/03 05:16:20;;;;;;;5.07;4.50;;;18.60;99.90;;;;;;5029773;28;20224;-77
2022/08/03 05:18:48;;;;;;;7.60;5.22;;;18.60;99.90;;;;;;5045044;28;20212;-78
2022/08/03 05:21:15;;;;;;;5.30;4.80;;;18.60;99.90;;;;;;5041896;28;20244;-78
2022/08/03 05:23:43;;;;;;;5.15;4.65;;;18.70;99.90;;;;;;5022960;28;20800;-78
2022/08/03 05:26:10;;;;;;;5.68;4.63;;;18.70;99.90;;;;;;5024406;28;20794;-79
2022/08/03 05:28:37;;;;;;;6.55;4.38;;;18.80;99.90;;;;;;5042762;28;20243;-77
2022/08/03 05:31:04;;;;;;;5.50;5.00;;;18.90;99.90;;;;;;5043193;28;20231;-77
2022/08/03 05:33:31;;;;;;;5.70;4.70;;;18.90;99.90;;;;;;5012328;28;21158;-79
2022/08/03 05:35:59;;;;;;;5.03;4.38;;;19.00;99.90;;;;;;5058976;28;20226;-78
2022/08/03 05:38:26;;;;;;;4.93;4.53;;;19.00;99.90;;;;;;5049922;28;20231;-78
2022/08/03 05:40:53;;;;;;;5.15;4.18;;;19.10;99.90;;;;;;5049399;28;20931;-78
2022/08/03 05:43:20;;;;;;;5.78;4.57;;;19.20;99.90;;;;;;5046986;28;20216;-78
2022/08/03 05:45:47;;;;;;;6.72;4.55;;;19.20;99.90;;;;;;5046874;28;20223;-79
2022/08/03 05:48:14;;;;;;;5.50;4.45;;;19.30;99.90;;;;;;5044735;28;20322;-78
2022/08/03 05:50:40;;;;;;;4.90;4.30;;;19.30;99.90;;;;;;5038843;28;20235;-78
2022/08/03 05:53:09;;;;;;;6.00;4.45;;;19.40;99.90;;;;;;5047835;28;20598;-78
2022/08/03 05:55:35;;;;;;;5.30;4.60;;;19.50;99.90;;;;;;5047434;28;20277;-78
2022/08/03 05:58:02;;;;;;;5.13;4.05;;;19.50;99.90;;;;;;5044482;28;20266;-78
2022/08/03 06:00:29;;;;;;;4.47;4.10;;;19.60;99.90;;;;;;5040828;28;20228;-79
2022/08/03 06:02:56;;;;;;;5.72;4.28;;;19.70;99.90;;;;;;5048918;28;20891;-78
2022/08/03 06:05:22;;;;;;;4.78;4.30;;;19.70;99.90;;;;;;5042988;28;20247;-78
2022/08/03 06:07:49;;;;;;;4.18;3.78;;;19.80;99.90;;;;;;5042860;28;20343;-79
2022/08/03 06:10:17;;;;;;;6.05;3.58;;;19.90;99.90;;;;;;5035395;28;20323;-79
2022/08/03 06:12:46;;;;;;;4.82;4.13;;;20.00;99.90;;;;;;5034045;28;20232;-78
2022/08/03 06:15:13;;;;;;;6.50;3.92;;;20.10;99.90;;;;;;5038048;28;20649;-78
2022/08/03 06:17:47;;;;;;;5.07;3.90;;;20.20;99.90;;;;;;5039810;28;20306;-78
2022/08/03 06:20:15;;;;;;;4.38;3.50;;;20.30;99.90;;;;;;5040109;28;20712;-78
2022/08/03 06:22:42;;;;;;;6.38;3.80;;;20.40;99.90;;;;;;5045181;28;20230;-78
2022/08/03 06:25:09;;;;;;;4.57;3.33;;;20.50;99.90;;;;;;5042390;28;20232;-79
2022/08/03 06:27:38;;;;;;;4.30;3.72;;;20.60;99.90;;;;;;5040144;28;20227;-77
2022/08/03 06:30:07;;;;;;;3.78;3.30;;;20.70;99.90;;;;;;5040469;28;20231;-78
2022/08/03 06:32:34;;;;;;;4.20;3.58;;;20.80;99.90;;;;;;5041079;28;20290;-81
2022/08/03 06:35:01;;;;;;;4.78;3.40;;;20.80;99.90;;;;;;5042537;28;20250;-79
2022/08/03 06:37:28;;;;;;;5.65;3.50;;;21.00;99.90;;;;;;5027981;28;20314;-79
2022/08/03 06:39:55;;;;;;;4.85;3.17;;;21.00;99.90;;;;;;5045707;28;20232;-79
2022/08/03 06:42:21;;;;;;;3.72;3.40;;;21.10;99.80;;;;;;5045718;28;20216;-80
2022/08/03 06:44:50;;;;;;;4.40;3.70;;;21.20;99.90;;;;;;5042326;28;20231;-79
2022/08/03 06:47:17;;;;;;;4.80;3.42;;;21.30;99.80;;;;;;5040815;28;20230;-80
2022/08/03 06:49:43;;;;;;;3.50;3.20;;;21.40;99.60;;;;;;5046178;28;20223;-79
2022/08/03 06:52:10;;;;;;;3.45;3.10;;;21.50;99.80;;;;;;5047748;28;20255;-78
2022/08/03 06:54:37;;;;;;;3.83;3.42;;;21.70;99.50;;;;;;5045774;28;20231;-78
2022/08/03 06:57:04;;;;;;;3.58;3.25;;;21.80;99.10;;;;;;5044014;28;20827;-79
2022/08/03 06:59:31;;;;;;;4.35;3.55;;;22.00;99.00;;;;;;5041731;28;20317;-78
2022/08/03 07:01:59;;;;;;;3.28;3.05;;;22.20;98.30;;;;;;5045369;28;20224;-79
2022/08/03 07:04:26;;;;;;;3.80;3.30;;;22.20;98.20;;;;;;5039779;28;20801;-78
2022/08/03 07:06:54;;;;;;;3.85;3.00;;;22.30;98.10;;;;;;5042565;28;20679;-79
2022/08/03 07:09:21;;;;;;;5.00;3.05;;;22.40;98.20;;;;;;5041514;28;20918;-79
2022/08/03 07:11:47;;;;;;;5.40;3.10;;;22.60;97.70;;;;;;5020295;28;20231;-79
2022/08/03 07:14:14;;;;;;;5.07;3.40;;;22.80;97.80;;;;;;5021556;28;20220;-78
2022/08/03 07:16:41;;;;;;;3.40;3.10;;;23.10;97.50;;;;;;5039239;28;20796;-79
2022/08/03 07:19:09;;;;;;;3.80;2.70;;;23.40;96.80;;;;;;5031681;28;20610;-79
2022/08/03 07:21:36;;;;;;;3.22;2.88;;;23.80;96.50;;;;;;5037915;28;20303;-79
2022/08/03 07:24:03;;;;;;;3.60;2.90;;;24.20;96.40;;;;;;5040086;28;20241;-79
2022/08/03 07:26:29;;;;;;;4.82;3.10;;;24.70;96.40;;;;;;5036535;28;20222;-80
2022/08/03 07:28:56;;;;;;;6.70;2.92;;;25.30;96.10;;;;;;5023433;28;20224;-79
2022/08/03 07:31:23;;;;;;;7.07;2.60;;;25.90;95.70;;;;;;5044188;28;20262;-79
2022/08/03 07:33:50;;;;;;;4.78;2.60;;;26.50;94.50;;;;;;5040864;28;20247;-79
2022/08/03 07:36:18;;;;;;;3.88;2.75;;;27.20;93.20;;;;;;5046429;28;20225;-80
2022/08/03 07:38:44;;;;;;;8.35;2.95;;;27.70;91.80;;;;;;5046215;28;20248;-80
2022/08/03 07:41:11;;;;;;;3.45;2.67;;;28.20;92.30;;;;;;5040723;28;20250;-79
2022/08/03 07:43:38;;;;;;;5.53;2.95;;;28.60;90.70;;;;;;5042606;28;20297;-78
2022/08/03 07:46:05;;;;;;;3.58;2.53;;;29.00;90.60;;;;;;5042340;28;20600;-79
2022/08/03 07:48:31;;;;;;;3.75;2.70;;;29.40;90.30;;;;;;5041749;28;20599;-79
2022/08/03 07:50:58;;;;;;;5.03;2.83;;;29.70;89.30;;;;;;5044788;28;20746;-78
2022/08/03 07:53:26;;;;;;;6.07;2.15;;;30.20;87.30;;;;;;5044074;28;20903;-79
2022/08/03 07:55:53;;;;;;;2.65;2.20;;;30.50;84.50;;;;;;5027143;28;20232;-78
2022/08/03 07:58:21;;;;;;;4.07;2.30;;;30.80;83.80;;;;;;5044334;28;20228;-79
2022/08/03 08:00:49;;;;;;;3.10;2.28;;;31.10;82.00;;;;;;5047019;28;20259;-79
2022/08/03 08:03:16;;;;;;;2.45;2.25;;;31.50;81.00;;;;;;5043600;28;20712;-78
2022/08/03 08:05:43;;;;;;;3.13;2.20;;;31.70;79.30;;;;;;5024165;28;20302;-78
2022/08/03 08:08:10;;;;;;;3.58;2.60;;;31.70;78.00;;;;;;5027981;28;20232;-80
2022/08/03 08:10:38;;;;;;;3.15;2.47;;;31.80;77.10;;;;;;5026638;28;20232;-79
2022/08/03 08:13:04;;;;;;;3.10;2.80;;;32.00;77.30;;;;;;5046577;28;20650;-79
2022/08/03 08:15:31;;;;;;;7.72;2.45;;;32.10;76.90;;;;;;5046527;28;20227;-79
2022/08/03 08:18:00;;;;;;;4.82;2.83;;;32.30;75.40;;;;;;5043141;28;20224;-80
2022/08/03 08:20:28;;;;;;;3.45;2.50;;;32.50;73.30;;;;;;5044046;28;20313;-81
2022/08/03 08:22:55;;;;;;;2.60;2.03;;;32.50;71.10;;;;;;5023369;28;20707;-80
2022/08/03 08:25:22;;;;;;;4.63;2.08;;;32.50;72.20;;;;;;5044952;28;20227;-79
2022/08/03 08:27:50;;;;;;;3.08;1.80;;;32.50;70.80;;;;;;5049166;28;20216;-84
2022/08/03 08:30:22;;;;;;;3.38;1.80;;;32.40;69.80;;;;;;5034417;28;20238;-83
2022/08/03 08:32:50;;;;;;;2.10;1.70;;;32.30;67.40;;;;;;5038761;28;20219;-83
2022/08/03 08:35:18;;;;;;;3.85;1.95;;;32.20;68.60;;;;;;5030155;28;20296;-82
2022/08/03 08:37:46;;;;;;;4.05;1.80;;;32.10;69.50;;;;;;5056243;28;20216;-82
2022/08/03 08:40:13;;;;;;;4.15;1.77;;;32.10;68.40;;;;;;5048715;28;20612;-83
2022/08/03 08:42:41;;;;;;;4.47;1.92;;;32.10;70.20;;;;;;5034748;28;20288;-84
2022/08/03 08:45:10;;;;;;;3.50;1.88;;;32.30;69.90;;;;;;5055012;28;20228;-83
2022/08/03 08:47:39;;;;;;;5.10;2.00;;;32.50;69.10;;;;;;5052568;28;20231;-83
2022/08/03 08:50:07;;;;;;;3.80;2.00;;;32.70;69.20;;;;;;5048517;28;20224;-83
2022/08/03 08:52:36;;;;;;;2.88;1.92;;;33.00;68.40;;;;;;5051805;28;20220;-84
2022/08/03 08:55:06;;;;;;;4.30;2.08;;;33.20;66.10;;;;;;5050084;28;20671;-83
2022/08/03 08:57:36;;;;;;;3.95;2.17;;;33.20;64.80;;;;;;5049912;28;20897;-83
2022/08/03 09:00:07;;;;;;;3.05;1.92;;;33.40;65.10;;;;;;5049631;28;20220;-83
2022/08/03 09:02:36;;;;;;;4.72;2.05;;;33.40;64.90;;;;;;5054003;28;20223;-83
2022/08/03 09:05:03;;;;;;;2.83;1.77;;;33.40;64.20;;;;;;5043697;28;20224;-82
2022/08/03 09:07:30;;;;;;;3.65;1.70;;;33.40;63.90;;;;;;5029749;28;20889;-84
2022/08/03 09:09:57;;;;;;;7.03;1.85;;;33.40;64.30;;;;;;5050880;28;20756;-83
2022/08/03 09:12:24;;;;;;;5.63;1.90;;;33.30;64.60;;;;;;5051993;28;20300;-83
2022/08/03 09:14:50;;;;;;;2.45;1.63;;;33.20;64.40;;;;;;5047296;28;20227;-83
2022/08/03 09:17:17;;;;;;;1.98;1.65;;;33.10;64.30;;;;;;5032331;28;20651;-83
2022/08/03 09:20:06;;;;;;;4.72;1.63;;;33.10;65.20;;;;;;5048914;28;20256;-83
2022/08/03 09:22:33;;;;;;;2.55;1.60;;;33.20;65.20;;;;;;5034657;28;20266;-83
2022/08/03 09:25:03;;;;;;;4.20;1.48;;;33.50;64.90;;;;;;5052062;28;20235;-84
2022/08/03 09:27:42;;;;;;;3.42;1.65;;;33.60;64.00;;;;;;5033245;28;20307;-84
2022/08/03 09:30:13;;;;;;;4.35;1.80;;;33.80;62.50;;;;;;5046424;28;20220;-84
2022/08/03 09:32:41;;;;;;;4.53;1.58;;;33.80;62.70;;;;;;5028708;28;20227;-84
2022/08/03 09:35:10;;;;;;;2.63;1.85;;;33.90;62.80;;;;;;5046464;28;20220;-84
2022/08/03 09:37:36;;;;;;;3.75;1.52;;;34.00;62.60;;;;;;5053405;28;20231;-84
2022/08/03 09:40:04;;;;;;;4.10;1.60;;;34.00;62.50;;;;;;5047264;28;20438;-84
2022/08/03 09:42:33;;;;;;;2.70;1.20;;;34.10;62.50;;;;;;5048795;28;20251;-84
2022/08/03 09:45:00;;;;;;;4.72;1.85;;;34.10;62.00;;;;;;5058187;28;20220;-84
2022/08/03 09:47:29;;;;;;;4.60;1.55;;;34.20;61.80;;;;;;5047329;28;20226;-84
2022/08/03 09:50:00;;;;;;;2.92;1.60;;;34.30;61.70;;;;;;5047655;28;20226;-84
2022/08/03 09:52:32;;;;;;;5.97;2.03;;;34.30;61.80;;;;;;5050887;28;20284;-83
2022/08/03 09:55:00;;;;;;;3.45;1.80;;;34.40;61.70;;;;;;5054818;28;20273;-84
2022/08/03 09:57:29;;;;;;;5.53;1.52;;;34.50;61.40;;;;;;5053865;28;20716;-84
2022/08/03 10:00:09;;;;;;;4.50;1.63;;;34.70;61.50;;;;;;5033875;28;20242;-84
2022/08/03 10:02:43;;;;;;;2.97;1.40;;;34.80;60.80;;;;;;5058736;28;20278;-84
2022/08/03 10:05:11;;;;;;;5.55;1.80;;;34.90;60.00;;;;;;5046066;28;20255;-84
2022/08/03 10:07:48;;;;;;;4.43;2.20;;;35.10;59.70;;;;;;5053943;28;20725;-83
2022/08/03 10:10:16;;;;;;;2.50;1.65;;;35.10;59.50;;;;;;5054249;28;20219;-85
2022/08/03 10:12:44;;;;;;;2.38;1.40;;;35.10;58.90;;;;;;5038851;28;20231;-84
2022/08/03 10:15:11;;;;;;;3.17;2.03;;;35.20;58.80;;;;;;5054201;28;20250;-84
2022/08/03 10:17:38;;;;;;;1.95;1.60;;;35.20;58.90;;;;;;5033082;28;20387;-84
2022/08/03 10:20:07;;;;;;;4.70;1.50;;;35.20;58.80;;;;;;5048974;28;20477;-84
2022/08/03 10:22:36;;;;;;;4.82;1.80;;;35.30;59.00;;;;;;5054127;28;20224;-84
2022/08/03 10:25:07;;;;;;;4.25;1.60;;;35.40;58.90;;;;;;5039848;28;20220;-83
2022/08/03 10:27:37;;;;;;;5.55;1.88;;;35.50;58.60;;;;;;5050791;28;20302;-82
2022/08/03 10:30:07;;;;;;;5.15;1.67;;;35.70;58.30;;;;;;5053620;28;20230;-83
2022/08/03 10:32:38;;;;;;;5.38;1.73;;;35.70;57.90;;;;;;5049293;28;20406;-83
2022/08/03 10:35:08;;;;;;;4.40;1.65;;;35.90;58.00;;;;;;5036617;28;20230;-82
2022/08/03 10:37:41;;;;;;;3.75;1.60;;;36.00;57.80;;;;;;5069203;22;20231;-84
2022/08/03 10:40:13;;;;;;;7.07;2.00;;;36.10;57.00;;;;;;5040643;28;21030;-85
2022/08/03 10:42:42;;;;;;;4.88;1.60;;;36.30;56.70;;;;;;5044972;28;20318;-85
2022/08/03 10:45:15;;;;;;;3.83;1.60;;;36.40;56.80;;;;;;5041964;28;20242;-85
2022/08/03 10:47:42;;;;;;;5.05;1.67;;;36.70;56.00;;;;;;5026517;28;20278;-85
2022/08/03 10:50:10;;;;;;;2.80;1.92;;;36.80;55.90;;;;;;5060366;28;20235;-85
2022/08/03 10:52:53;;;;;;;3.40;1.50;;;36.90;55.60;;;;;;5045461;28;20306;-85
2022/08/03 10:58:50;;;;;;;3.05;1.58;;;37.00;55.10;;;;;;5047225;28;20643;-85
2022/08/03 11:01:18;;;;;;;4.10;1.52;;;37.20;54.80;;;;;;5034217;28;20246;-82
2022/08/03 11:04:16;;;;;;;5.03;1.55;;;37.30;54.40;;;;;;5052741;28;20219;-82
2022/08/03 11:06:44;;;;;;;4.40;1.73;;;37.50;53.80;;;;;;5051690;28;20215;-82
2022/08/03 11:09:16;;;;;;;3.67;1.60;;;37.60;53.90;;;;;;5059291;28;20228;-82
2022/08/03 11:11:44;;;;;;;3.88;1.63;;;37.70;53.60;;;;;;5057546;28;20227;-82
2022/08/03 11:14:15;;;;;;;4.45;1.55;;;37.80;53.60;;;;;;5067404;28;20234;-82
2022/08/03 11:16:45;;;;;;;3.65;1.45;;;37.80;52.80;;;;;;5059918;28;20223;-82
2022/08/03 11:19:14;;;;;;;8.20;1.83;;;37.90;52.30;;;;;;5067145;28;20221;-82
2022/08/03 11:21:56;;;;;;;4.97;1.73;;;37.90;52.00;;;;;;5048362;28;20231;-82
2022/08/03 11:24:57;;;;;;;4.25;2.00;;;37.80;52.30;;;;;;5063649;28;20324;-82
2022/08/03 11:27:24;;;;;;;4.47;2.03;;;37.80;52.80;;;;;;5049133;28;20603;-82
2022/08/03 11:29:57;;;;;;;3.33;1.50;;;37.80;52.50;;;;;;5074127;28;20227;-82
2022/08/03 11:32:51;;;;;;;3.30;1.50;;;37.70;51.70;;;;;;5053588;28;21344;-82
2022/08/03 11:35:20;;;;;;;2.95;1.80;;;37.60;51.80;;;;;;5067574;28;20219;-82
2022/08/03 11:38:07;;;;;;;2.05;1.55;;;37.60;51.40;;;;;;5073079;28;20317;-82
2022/08/03 11:40:35;;;;;;;4.10;1.73;;;37.50;51.80;;;;;;5075368;28;20246;-83
2022/08/03 11:43:03;;;;;;;4.78;1.70;;;37.50;51.60;;;;;;5070892;28;20245;-82
2022/08/03 11:45:31;;;;;;;3.40;1.50;;;37.40;51.40;;;;;;5071897;28;20587;-82
2022/08/03 11:48:02;;;;;;;3.97;1.73;;;37.30;51.50;;;;;;5065440;28;20211;-85
2022/08/03 11:50:36;;;;;;;3.92;1.75;;;37.20;52.30;;;;;;5045238;28;20597;-85
2022/08/03 11:53:03;;;;;;;1.60;1.50;;;37.20;51.90;;;;;;5064876;28;20257;-85
2022/08/03 11:55:31;;;;;;;4.03;1.70;;;37.20;52.20;;;;;;5037013;28;20224;-86
2022/08/03 11:57:59;;;;;;;2.75;1.75;;;37.20;51.80;;;;;;5062855;28;20247;-85
2022/08/03 12:00:28;;;;;;;2.67;1.85;;;37.20;51.90;;;;;;5046975;28;20227;-85
2022/08/03 12:03:02;;;;;;;5.03;1.70;;;37.10;51.90;;;;;;5047087;28;20326;-85
2022/08/03 12:05:41;;;;;;;2.70;1.83;;;36.90;51.50;;;;;;5062422;28;20987;-85
2022/08/03 12:08:10;;;;;;;4.82;1.67;;;36.70;51.60;;;;;;5038440;28;20231;-84
2022/08/03 12:10:38;;;;;;;2.80;1.55;;;36.50;52.20;;;;;;5070550;28;20238;-84
2022/08/03 12:13:07;;;;;;;1.90;1.40;;;36.40;52.60;;;;;;5052717;28;20250;-85
2022/08/03 12:15:35;;;;;;;3.95;1.60;;;36.40;52.40;;;;;;5070790;28;20296;-84
2022/08/03 12:18:13;;;;;;;3.65;1.40;;;36.40;52.20;;;;;;5041876;28;20607;-84
2022/08/03 12:20:40;;;;;;;2.92;1.40;;;36.60;51.60;;;;;;5066571;28;20231;-84
2022/08/03 12:23:09;;;;;;;2.15;1.60;;;36.60;52.40;;;;;;5061073;28;20219;-85
2022/08/03 12:25:36;;;;;;;4.43;1.75;;;36.80;52.00;;;;;;5027260;28;20232;-84
2022/08/03 12:28:09;;;;;;;3.08;1.58;;;37.00;51.70;;;;;;5048978;28;20457;-85
2022/08/03 12:30:36;;;;;;;4.38;1.88;;;37.10;51.30;;;;;;5063190;28;20664;-85
2022/08/03 12:33:19;;;;;;;5.70;2.42;;;37.20;51.30;;;;;;5062808;28;20758;-86
2022/08/03 12:35:47;;;;;;;3.63;1.80;;;37.20;51.40;;;;;;5052593;28;20683;-85
2022/08/03 12:38:19;;;;;;;4.60;1.60;;;37.40;51.30;;;;;;5065161;28;20238;-85
2022/08/03 12:40:54;;;;;;;2.28;1.50;;;37.50;51.00;;;;;;5070972;28;20215;-85
2022/08/03 12:43:21;;;;;;;4.18;1.77;;;37.60;50.80;;;;;;5061953;28;20313;-85
2022/08/03 12:45:48;;;;;;;3.40;1.50;;;37.60;50.70;;;;;;5046792;28;20226;-84
2022/08/03 12:48:16;;;;;;;4.28;1.58;;;37.70;50.00;;;;;;5039814;28;20227;-84
2022/08/03 12:50:43;;;;;;;4.05;1.35;;;37.70;49.90;;;;;;5048379;28;20310;-83
2022/08/03 12:53:10;;;;;;;3.67;1.55;;;37.70;49.60;;;;;;5068050;28;20223;-83
2022/08/03 12:55:38;;;;;;;5.22;1.67;;;37.70;49.40;;;;;;5065137;28;20546;-83
2022/08/03 12:58:09;;;;;;;3.60;1.48;;;37.70;49.20;;;;;;5053199;28;20221;-84
2022/08/03 13:00:37;;;;;;;3.25;1.58;;;37.60;49.00;;;;;;5051553;28;20251;-84
2022/08/03 13:03:07;;;;;;;3.35;2.10;;;37.60;49.00;;;;;;5043384;28;20274;-83
2022/08/03 13:05:44;;;;;;;2.90;1.40;;;37.60;49.20;;;;;;5039390;28;20222;-83
2022/08/03 13:08:19;;;;;;;3.45;1.52;;;37.60;49.30;;;;;;5056286;28;20238;-83